.
WxDataArchive / Data Records for 2015-08-30
2015-08-29 August 2015 2015-08-31

Data Records for Sunday, 30 August 2015

Time	Temp	Chill	HIndex	Humid	Dewpt	 Wind 	HiWind	WindDir	Rain 	Barom
-----	----	-----	------	-----	-----	------	------	-------	-----	-----
00:00	68.3	68.3	68.3	95	66.8	0	0	---	0.00	30.012 
00:05	68.3	68.3	68.3	95	66.8	0	0	---	0.00	30.012 
00:10	68.3	68.3	68.3	95	66.8	0	0	---	0.00	30.012 
00:15	68.3	68.3	68.3	95	66.8	0	0	---	0.00	30.011 
00:20	68.3	68.3	68.3	95	66.8	0	0	---	0.00	30.011 
00:25	68.3	68.3	68.3	95	66.8	0	0	---	0.00	30.011 
00:30	68.3	68.3	68.3	95	66.8	0	0	---	0.00	30.007 
00:35	68.3	68.3	68.3	95	66.8	0	0	---	0.00	30.007 
00:40	68.3	68.3	68.3	95	66.8	0	0	---	0.00	30.007 
00:45	68.3	68.3	68.3	95	66.8	0	0	---	0.00	30.008 
00:50	68.3	68.3	68.3	95	66.8	0	0	---	0.00	30.008 
00:55	68.1	68.1	68.1	95	66.6	0	0	---	0.00	30.008 
01:00	68.1	68.1	68.1	95	66.6	0	0	---	0.00	30.011 
01:05	68.1	68.1	68.1	95	66.6	0	0	---	0.00	30.011 
01:10	68.1	68.1	68.1	95	66.6	0	0	---	0.00	30.011 
01:15	68.1	68.1	68.1	95	66.6	0	0	---	0.00	30.010 
01:20	68.1	68.1	68.1	95	66.6	0	0	---	0.00	30.010 
01:25	68.3	68.3	68.3	95	66.8	0	0	---	0.00	30.010 
01:30	68.3	68.3	68.3	95	66.8	0	0	---	0.00	30.010 
01:35	68.3	68.3	68.3	95	66.8	0	1	270	0.00	30.010 
01:40	68.3	68.3	68.3	95	66.8	0	0	---	0.00	30.010 
01:45	68.3	68.3	68.3	95	66.8	0	0	---	0.00	30.009 
01:50	68.3	68.3	68.3	96	67.1	0	1	270	0.00	30.009 
01:55	68.3	68.3	68.3	96	67.1	0	0	---	0.00	30.009 
02:00	68.3	68.3	68.3	96	67.1	0	0	---	0.00	29.999 
02:05	68.3	68.3	68.3	96	67.1	0	0	---	0.00	29.999 
02:10	68.3	68.3	68.3	96	67.1	0	0	---	0.00	29.999 
02:15	68.3	68.3	68.3	96	67.1	0	0	---	0.00	29.988 
02:20	68.3	68.3	68.3	96	67.1	0	0	---	0.00	29.988 
02:25	68.1	68.1	68.1	96	66.9	0	0	---	0.00	29.988 
02:30	68.1	68.1	68.1	96	66.9	0	0	---	0.00	29.981 
02:35	68.1	68.1	68.1	96	66.9	0	0	---	0.00	29.981 
02:40	68.1	68.1	68.1	96	66.9	0	0	---	0.00	29.981 
02:45	67.9	67.9	67.9	96	66.7	0	0	---	0.00	29.980 
02:50	67.9	67.9	67.9	96	66.7	0	0	---	0.00	29.980 
02:55	67.9	67.9	67.9	96	66.7	0	0	---	0.00	29.980 
03:00	67.9	67.9	67.9	96	66.7	0	0	---	0.00	29.979 
03:05	67.9	67.9	67.9	96	66.7	0	0	---	0.00	29.979 
03:10	67.8	67.8	67.8	96	66.6	0	0	---	0.00	29.979 
03:15	67.8	67.8	67.8	96	66.6	0	0	---	0.00	29.982 
03:20	67.8	67.8	67.8	96	66.6	0	0	---	0.00	29.982 
03:25	67.8	67.8	67.8	96	66.6	0	0	---	0.00	29.982 
03:30	67.6	67.6	67.6	96	66.4	0	0	---	0.00	29.981 
03:35	67.6	67.6	67.6	96	66.4	0	0	---	0.00	29.981 
03:40	67.4	67.4	67.4	96	66.2	0	0	---	0.00	29.981 
03:45	67.4	67.4	67.4	96	66.2	0	0	---	0.00	29.984 
03:50	67.4	67.4	67.4	96	66.2	0	0	---	0.00	29.984 
03:55	67.4	67.4	67.4	96	66.2	0	0	---	0.00	29.984 
04:00	67.4	67.4	67.4	96	66.2	0	0	---	0.00	29.984 
04:05	67.4	67.4	67.4	96	66.2	0	0	---	0.00	29.984 
04:10	67.4	67.4	67.4	96	66.2	0	0	---	0.00	29.984 
04:15	67.4	67.4	67.4	96	66.2	0	0	---	0.00	29.984 
04:20	67.4	67.4	67.4	96	66.2	0	0	---	0.00	29.984 
04:25	67.4	67.4	67.4	96	66.2	0	0	---	0.00	29.984 
04:30	67.4	67.4	67.4	96	66.2	0	0	---	0.00	29.983 
04:35	67.4	67.4	67.4	96	66.2	0	0	---	0.00	29.983 
04:40	67.3	67.3	67.3	96	66.1	0	0	---	0.00	29.983 
04:45	67.3	67.3	67.3	96	66.1	0	0	---	0.00	29.978 
04:50	67.3	67.3	67.3	96	66.1	0	0	---	0.00	29.978 
04:55	67.1	67.1	67.1	96	65.9	0	0	---	0.00	29.978 
05:00	67.1	67.1	67.1	96	65.9	0	0	---	0.00	29.980 
05:05	67.1	67.1	67.1	96	65.9	0	0	---	0.00	29.980 
05:10	67.1	67.1	67.1	96	65.9	0	0	---	0.00	29.980 
05:15	67.1	67.1	67.1	96	65.9	0	0	---	0.00	29.984 
05:20	66.9	66.9	66.9	96	65.7	0	0	---	0.00	29.984 
05:25	66.9	66.9	66.9	96	65.7	0	0	---	0.00	29.984 
05:30	66.9	66.9	66.9	96	65.7	0	0	---	0.00	29.991 
05:35	66.9	66.9	66.9	96	65.7	0	0	---	0.00	29.991 
05:40	66.9	66.9	66.9	96	65.7	0	0	---	0.00	29.991 
05:45	66.9	66.9	66.9	96	65.7	0	0	---	0.00	29.994 
05:50	66.9	66.9	66.9	96	65.7	0	0	---	0.00	29.994 
05:55	67.1	67.1	67.1	96	65.9	0	0	---	0.00	29.994 
06:00	67.1	67.1	67.1	96	65.9	0	0	---	0.00	29.997 
06:05	67.1	67.1	67.1	96	65.9	0	0	---	0.00	29.997 
06:10	67.1	67.1	67.1	96	65.9	0	0	---	0.00	29.997 
06:15	67.3	67.3	67.3	96	66.1	0	0	---	0.00	29.999 
06:20	67.1	67.1	67.1	96	65.9	0	0	---	0.00	29.999 
06:25	67.1	67.1	67.1	96	65.9	0	0	---	0.00	29.999 
06:30	67.1	67.1	67.1	96	65.9	0	0	---	0.00	29.998 
06:35	67.1	67.1	67.1	96	65.9	0	0	---	0.00	29.998 
06:40	67.1	67.1	67.1	96	65.9	0	0	---	0.00	29.998 
06:45	67.1	67.1	67.1	96	65.9	0	0	---	0.00	30.000 
06:50	67.1	67.1	67.1	96	65.9	0	0	---	0.00	30.000 
06:55	67.1	67.1	67.1	96	65.9	0	0	---	0.00	30.000 
07:00	67.1	67.1	67.1	96	65.9	0	0	---	0.00	30.005 
07:05	66.9	66.9	66.9	96	65.7	0	0	---	0.00	30.005 
07:10	66.9	66.9	66.9	96	65.7	0	0	---	0.00	30.005 
07:15	66.9	66.9	66.9	96	65.7	0	0	---	0.00	30.008 
07:20	66.8	66.8	66.8	96	65.6	0	0	---	0.00	30.008 
07:25	66.8	66.8	66.8	96	65.6	0	0	---	0.00	30.008 
07:30	66.9	66.9	66.9	96	65.7	0	0	---	0.00	30.010 
07:35	66.9	66.9	66.9	96	65.7	0	0	---	0.00	30.010 
07:40	66.9	66.9	66.9	96	65.7	0	0	---	0.00	30.010 
07:45	66.9	66.9	66.9	96	65.7	0	0	---	0.00	30.015 
07:50	66.9	66.9	66.9	96	65.7	0	0	---	0.00	30.015 
07:55	67.1	67.1	67.1	96	65.9	0	0	---	0.00	30.015 
08:00	67.3	67.3	67.3	96	66.1	0	0	---	0.00	30.017 
08:05	67.4	67.4	67.4	96	66.2	0	0	---	0.00	30.017 
08:10	67.6	67.6	67.6	96	66.4	0	0	---	0.00	30.017 
08:15	67.8	67.8	67.8	96	66.6	0	0	---	0.00	30.016 
08:20	67.9	67.9	67.9	96	66.7	0	0	---	0.00	30.016 
08:25	68.1	68.1	68.1	96	66.9	0	0	---	0.00	30.016 
08:30	68.3	68.3	68.3	96	67.1	0	0	---	0.00	30.018 
08:35	68.3	68.3	68.3	96	67.1	0	0	---	0.00	30.018 
08:40	68.4	68.4	68.4	96	67.2	0	0	---	0.00	30.018 
08:45	68.4	68.4	68.4	96	67.2	0	0	---	0.00	30.022 
08:50	68.8	68.8	68.8	96	67.6	0	0	---	0.00	30.022 
08:55	68.9	68.9	68.9	96	67.7	0	1	270	0.00	30.022 
09:00	69.3	69.3	69.3	96	68.1	0	0	---	0.00	30.026 
09:05	69.4	69.4	69.4	96	68.2	0	0	---	0.00	30.026 
09:10	69.6	69.6	69.6	96	68.4	0	0	---	0.00	30.026 
09:15	69.8	69.8	69.8	96	68.6	0	0	---	0.00	30.026 
09:20	69.9	69.9	69.9	96	68.7	0	0	---	0.00	30.026 
09:25	70.1	70.1	70.1	96	68.9	0	1	292	0.00	30.026 
09:30	70.3	70.3	70.3	96	69.1	0	1	292	0.00	30.028 
09:35	70.4	70.4	70.4	96	69.2	0	1	292	0.00	30.028 
09:40	70.4	70.4	70.4	96	69.2	0	1	270	0.00	30.028 
09:45	70.4	70.4	70.4	96	69.2	0	2	270	0.00	30.027 
09:50	70.8	70.8	70.8	96	69.6	0	1	270	0.00	30.027 
09:55	70.9	70.9	70.9	96	69.7	0	1	270	0.00	30.027 
10:00	71.1	71.1	71.1	96	69.9	0	1	270	0.00	30.026 
10:05	71.5	71.5	71.5	96	70.3	0	1	270	0.00	30.026 
10:10	71.6	71.6	71.6	96	70.4	0	1	270	0.00	30.026 
10:15	71.8	71.8	71.8	96	70.6	0	1	270	0.00	30.027 
10:20	72.0	72.0	72.0	96	70.8	0	1	270	0.00	30.027 
10:25	72.3	72.3	72.3	95	70.8	0	1	270	0.00	30.027 
10:30	72.8	72.8	72.8	95	71.3	0	2	270	0.00	30.025 
10:35	73.0	73.0	73.0	94	71.2	0	2	270	0.00	30.025 
10:40	73.2	73.2	73.2	93	71.0	0	2	270	0.00	30.025 
10:45	73.5	73.5	73.5	92	71.0	0	2	270	0.00	30.029 
10:50	73.9	73.9	73.9	91	71.1	0	3	270	0.00	30.029 
10:55	74.0	74.0	74.0	90	70.9	0	2	270	0.00	30.029 
11:00	74.6	74.6	74.6	88	70.8	0	1	270	0.00	30.029 
11:05	74.9	74.9	74.9	85	70.1	1	4	270	0.00	30.029 
11:10	75.4	75.4	75.8	83	69.9	1	3	270	0.00	30.029 
11:15	76.0	76.0	76.8	82	70.1	0	3	270	0.00	30.028 
11:20	76.5	76.5	77.7	81	70.2	0	2	270	0.00	30.028 
11:25	77.4	77.4	79.3	79	70.4	0	1	315	0.00	30.028 
11:30	78.1	78.1	80.4	77	70.3	0	2	315	0.00	30.027 
11:35	78.5	78.5	80.9	74	69.5	0	1	315	0.00	30.027 
11:40	78.8	78.8	81.3	73	69.4	0	2	315	0.00	30.027 
11:45	79.4	79.4	82.1	71	69.2	0	2	315	0.00	30.027 
11:50	79.9	79.9	82.9	71	69.6	0	1	315	0.00	30.027 
11:55	80.5	80.5	83.5	68	68.9	0	1	315	0.00	30.027 
12:00	80.3	80.3	83.3	69	69.2	0	2	315	0.00	30.024 
12:05	79.9	79.9	82.6	68	68.4	0	1	315	0.00	30.024 
12:10	80.3	80.3	83.3	69	69.2	0	0	---	0.00	30.024 
12:15	80.3	80.3	82.9	66	67.9	0	3	315	0.00	30.023 
12:20	80.5	80.5	83.3	67	68.5	0	2	315	0.00	30.023 
12:25	81.1	81.1	84.5	68	69.5	0	1	315	0.00	30.023 
12:30	81.4	81.4	84.3	64	68.0	0	3	315	0.00	30.018 
12:35	82.2	82.2	85.5	64	68.8	0	1	315	0.00	30.018 
12:40	82.6	82.6	86.2	64	69.2	0	1	315	0.00	30.018 
12:45	83.0	83.0	85.9	60	67.7	0	2	315	0.00	30.012 
12:50	82.8	82.8	85.4	59	67.0	0	2	315	0.00	30.012 
12:55	82.8	82.8	86.1	62	68.4	0	2	315	0.00	30.012 
13:00	83.0	83.0	85.7	59	67.2	0	2	68	0.00	30.011 
13:05	83.0	83.0	85.3	57	66.2	0	2	292	0.00	30.011 
13:10	82.8	82.8	85.2	58	66.5	0	2	292	0.00	30.011 
13:15	83.4	83.4	86.3	59	67.5	0	3	292	0.00	30.008 
13:20	83.6	83.6	86.1	57	66.7	0	3	68	0.00	30.008 
13:25	84.0	84.0	87.0	58	67.6	0	5	68	0.00	30.008 
13:30	84.0	84.0	86.0	54	65.5	1	3	68	0.00	30.007 
13:35	84.0	84.0	86.3	55	66.1	0	2	270	0.00	30.007 
13:40	84.3	84.3	86.7	55	66.3	0	2	315	0.00	30.007 
13:45	84.5	84.5	86.7	54	66.0	0	3	22	0.00	30.000 
13:50	84.7	84.7	87.0	54	66.2	0	3	315	0.00	30.000 
13:55	84.7	84.7	86.3	51	64.5	0	2	315	0.00	30.000 
14:00	84.9	84.9	87.6	55	66.9	0	3	315	0.00	30.001 
14:05	84.5	84.5	86.3	52	64.9	1	3	315	0.00	30.001 
14:10	84.3	84.3	86.5	54	65.8	0	3	315	0.00	30.001 
14:15	84.3	84.3	86.5	54	65.8	0	2	315	0.00	29.995 
14:20	84.3	84.3	86.7	55	66.3	1	2	315	0.00	29.995 
14:25	84.3	84.3	86.5	54	65.8	0	2	315	0.00	29.995 
14:30	84.3	84.3	86.2	53	65.3	0	2	315	0.00	29.993 
14:35	84.3	84.3	86.0	52	64.7	1	3	315	0.00	29.993 
14:40	84.5	84.5	86.7	54	66.0	0	2	292	0.00	29.993 
14:45	84.7	84.7	86.3	51	64.5	1	3	292	0.00	29.991 
14:50	84.5	84.5	86.5	53	65.5	0	2	292	0.00	29.991 
14:55	84.3	84.3	86.7	55	66.3	0	2	292	0.00	29.991 
15:00	84.0	84.0	85.6	52	64.4	1	3	292	0.00	29.987 
15:05	84.0	84.0	86.3	55	66.1	0	1	292	0.00	29.987 
15:10	84.3	84.3	85.7	51	64.2	1	4	68	0.00	29.987 
15:15	84.7	84.7	86.0	50	64.0	1	2	22	0.00	29.981 
15:20	84.7	84.7	86.3	51	64.5	1	5	292	0.00	29.981 
15:25	84.9	84.9	86.8	52	65.3	1	3	292	0.00	29.981 
15:30	85.1	85.1	87.1	52	65.5	0	2	292	0.00	29.980 
15:35	85.1	85.1	87.1	52	65.5	1	3	292	0.00	29.980 
15:40	85.1	85.1	86.9	51	64.9	1	2	292	0.00	29.980 
15:45	84.9	84.9	86.6	51	64.7	0	2	292	0.00	29.976 
15:50	84.9	84.9	86.6	51	64.7	0	2	292	0.00	29.976 
15:55	84.7	84.7	86.5	52	65.1	1	3	292	0.00	29.976 
16:00	84.3	84.3	85.7	51	64.2	1	3	292	0.00	29.976 
16:05	83.6	83.6	85.2	53	64.6	1	4	292	0.00	29.976 
16:10	83.6	83.6	85.2	53	64.6	1	4	292	0.00	29.976 
16:15	83.8	83.8	85.5	53	64.8	1	5	292	0.00	29.973 
16:20	84.1	84.1	85.7	52	64.5	1	3	292	0.00	29.973 
16:25	84.1	84.1	85.5	51	64.0	1	2	292	0.00	29.973 
16:30	84.0	84.0	85.8	53	65.0	1	4	292	0.00	29.969 
16:35	84.0	84.0	85.8	53	65.0	1	5	270	0.00	29.969 
16:40	83.8	83.8	85.5	53	64.8	0	2	270	0.00	29.969 
16:45	83.8	83.8	85.7	54	65.3	1	3	270	0.00	29.968 
16:50	84.0	84.0	86.0	54	65.5	1	3	270	0.00	29.968 
16:55	83.8	83.8	85.7	54	65.3	0	2	270	0.00	29.968 
17:00	83.8	83.8	85.7	54	65.3	1	3	270	0.00	29.969 
17:05	83.8	83.8	85.5	53	64.8	1	3	270	0.00	29.969 
17:10	83.6	83.6	85.2	53	64.6	1	3	270	0.00	29.969 
17:15	83.8	83.8	86.0	55	65.9	0	1	270	0.00	29.964 
17:20	84.0	84.0	86.0	54	65.5	0	1	270	0.00	29.964 
17:25	84.0	84.0	86.0	54	65.5	1	3	270	0.00	29.964 
17:30	84.0	84.0	86.0	54	65.5	0	1	270	0.00	29.964 
17:35	84.0	84.0	86.0	54	65.5	0	3	270	0.00	29.964 
17:40	84.0	84.0	86.3	55	66.1	0	1	270	0.00	29.964 
17:45	84.1	84.1	86.2	54	65.6	1	4	270	0.00	29.965 
17:50	84.1	84.1	86.2	54	65.6	0	2	270	0.00	29.965 
17:55	84.0	84.0	86.0	54	65.5	0	2	270	0.00	29.965 
18:00	84.0	84.0	86.3	55	66.1	0	1	270	0.00	29.962 
18:05	84.0	84.0	86.0	54	65.5	0	1	270	0.00	29.962 
18:10	83.6	83.6	85.5	54	65.2	1	4	270	0.00	29.962 
18:15	83.2	83.2	85.1	55	65.3	0	1	270	0.00	29.958 
18:20	82.8	82.8	84.6	55	65.0	0	2	270	0.00	29.958 
18:25	82.6	82.6	84.3	55	64.8	0	2	270	0.00	29.958 
18:30	82.4	82.4	84.4	57	65.6	0	1	270	0.00	29.957 
18:35	82.4	82.4	84.4	57	65.6	0	2	270	0.00	29.957 
18:40	82.4	82.4	84.4	57	65.6	0	1	270	0.00	29.957 
18:45	82.2	82.2	84.2	57	65.4	0	1	270	0.00	29.956 
18:50	82.2	82.2	84.2	57	65.4	0	2	270	0.00	29.956 
18:55	82.2	82.2	84.2	57	65.4	0	1	270	0.00	29.956 
19:00	82.2	82.2	84.3	58	65.9	0	1	270	0.00	29.955 
19:05	82.2	82.2	84.3	58	65.9	0	1	270	0.00	29.955 
19:10	82.0	82.0	84.1	58	65.7	0	2	270	0.00	29.955 
19:15	82.0	82.0	83.9	57	65.2	0	2	270	0.00	29.959 
19:20	81.8	81.8	83.8	58	65.6	0	3	270	0.00	29.959 
19:25	81.6	81.6	83.5	58	65.4	0	0	---	0.00	29.959 
19:30	81.4	81.4	83.3	58	65.2	0	1	270	0.00	29.960 
19:35	81.4	81.4	83.3	58	65.2	0	1	270	0.00	29.960 
19:40	81.2	81.2	83.0	58	65.0	0	2	270	0.00	29.960 
19:45	81.1	81.1	83.0	59	65.4	0	0	---	0.00	29.960 
19:50	80.9	80.9	82.8	59	65.2	0	1	270	0.00	29.960 
19:55	80.7	80.7	82.7	60	65.5	0	1	270	0.00	29.960 
20:00	80.5	80.5	82.5	61	65.8	0	0	---	0.00	29.961 
20:05	80.3	80.3	82.4	62	66.1	0	0	---	0.00	29.961 
20:10	79.9	79.9	81.9	62	65.7	0	0	---	0.00	29.961 
20:15	79.6	79.6	81.6	63	65.9	0	0	---	0.00	29.962 
20:20	79.4	79.4	81.5	64	66.1	0	0	---	0.00	29.962 
20:25	79.0	79.0	81.0	64	65.8	0	0	---	0.00	29.962 
20:30	78.6	78.6	80.6	65	65.8	0	0	---	0.00	29.966 
20:35	78.3	78.3	80.2	65	65.5	0	0	---	0.00	29.966 
20:40	77.9	77.9	79.8	66	65.6	0	0	---	0.00	29.966 
20:45	77.6	77.6	79.5	67	65.8	0	0	---	0.00	29.967 
20:50	77.2	77.2	79.0	69	66.2	0	0	---	0.00	29.967 
20:55	76.8	76.8	78.5	70	66.3	0	0	---	0.00	29.967 
21:00	76.5	76.5	78.1	72	66.8	0	0	---	0.00	29.975 
21:05	76.1	76.1	77.6	73	66.8	0	1	270	0.00	29.975 
21:10	75.8	75.8	77.2	74	66.9	0	0	---	0.00	29.975 
21:15	75.6	75.6	76.9	75	67.1	0	0	---	0.00	29.980 
21:20	75.4	75.4	76.5	76	67.3	0	0	---	0.00	29.980 
21:25	75.4	75.4	76.4	77	67.7	0	0	---	0.00	29.980 
21:30	75.3	75.3	76.3	77	67.6	0	0	---	0.00	29.986 
21:35	75.3	75.3	76.2	78	68.0	0	0	---	0.00	29.986 
21:40	75.1	75.1	75.8	79	68.1	0	0	---	0.00	29.986 
21:45	75.1	75.1	75.8	79	68.1	0	0	---	0.00	29.988 
21:50	74.9	74.9	74.9	80	68.3	0	0	---	0.00	29.988 
21:55	74.7	74.7	74.7	81	68.5	0	0	---	0.00	29.988 
22:00	74.4	74.4	74.4	81	68.2	0	0	---	0.00	29.993 
22:05	74.2	74.2	74.2	82	68.3	0	0	---	0.00	29.993 
22:10	74.0	74.0	74.0	82	68.1	0	0	---	0.00	29.993 
22:15	73.9	73.9	73.9	83	68.4	0	0	---	0.00	29.994 
22:20	73.7	73.7	73.7	83	68.2	0	0	---	0.00	29.994 
22:25	73.3	73.3	73.3	84	68.2	0	0	---	0.00	29.994 
22:30	73.2	73.2	73.2	84	68.1	0	0	---	0.00	29.996 
22:35	73.0	73.0	73.0	85	68.2	0	0	---	0.00	29.996 
22:40	73.0	73.0	73.0	85	68.2	0	0	---	0.00	29.996 
22:45	72.8	72.8	72.8	86	68.4	0	0	---	0.00	29.996 
22:50	72.7	72.7	72.7	86	68.3	0	0	---	0.00	29.996 
22:55	72.5	72.5	72.5	87	68.4	0	0	---	0.00	29.996 
23:00	72.3	72.3	72.3	87	68.2	0	0	---	0.00	29.996 
23:05	72.3	72.3	72.3	87	68.2	0	0	---	0.00	29.996 
23:10	72.0	72.0	72.0	88	68.2	0	0	---	0.00	29.996 
23:15	71.8	71.8	71.8	88	68.0	0	0	---	0.00	29.991 
23:20	71.8	71.8	71.8	88	68.0	0	0	---	0.00	29.991 
23:25	71.6	71.6	71.6	88	67.8	0	0	---	0.00	29.991 
23:30	71.6	71.6	71.6	89	68.2	0	0	---	0.00	29.992 
23:35	71.5	71.5	71.5	89	68.1	0	0	---	0.00	29.992 
23:40	71.5	71.5	71.5	89	68.1	0	0	---	0.00	29.992 
23:45	71.3	71.3	71.3	90	68.2	0	0	---	0.00	29.996 
23:50	71.1	71.1	71.1	90	68.0	0	0	---	0.00	29.996 
23:55	70.9	70.9	70.9	90	67.8	0	0	---	0.00	29.996 

CoCoRaHS
IN-AL-39
A2 Web Hosting
Creative Commons License
GoDaddy
search engine by freefind advanced

loaded 2018-11-17 18:17:55 • last modified 2010-11-18 10:43:29
Privacy PolicyDisclaimer
• wx.awcolley.com is powered by PmWiki v.2002016 •
• all content (unless otherwise noted) © 2018 A W Colley